Record high temperature 44.9°C Record low temperature -0.3°C Record high gust 87.3 km/h Record high average 77.7 km/h Record daily rain 484.8 mm Record low windchill -5.8°C Record high barometer 1043.6 hPa Record low barometer 978.0 hPa
Daily high pressure 1018.8 mb Daily low pressure 1015.9 mb Daily low windchill 21.4°C Daily high heat index 32.4°C Daily high gust speed 25.9 kmh NE Daily high average speed 13.0 kmh S
Estación de MeteoMurcia.com -------- Murcia-Puente Tocinos
Ultima grabación a: 17:20 Data: 19 September 2018, time of next update: 17:30
Tiempo actualmostly clear Temperatura actual29.4°C (84.9°F) (Indice de Calor31.4°C ), Temperatura aparente 31.1°C
Temperatura máxima (desde medianoche)30.7°C at: 15:26 Temperatura mínima (desde medianoche)21.4°C at: 07:17
Velocidad media del viento (diez minutos)8.3 kmh (4.5 kts) Dirección del viento (diez minutos)NE (55°)
Indice de Calor31.4°C ráfagas maxima (última hora)21.6 kmh (11.7 kts) at: 16:18
ráfagas maxima (desde medianoche)25.9 kmh (14.0 kts) at: 15:40 Maximo media de un minuto (desde medianoche)13.0 kmh (7.0 kts) at: 00:35
Lluvia (última hora)0.0 mm Lluvia (desde medianoche)0.0 mm (0.00 in.)---
Lluvia Este mes 29.3 mm (1.15 in.) Lluvia Hasta la fecha este año173.4 mm (6.83 in.)
Lluvia máxima por minuto (última hora)0.0 mm/min Lluvia maxima por hora (últimas 6 horas)0.0 mm/hora
Lluvia de ayer 0.8 mm Punto de rocío 20.3°C (Wet Bulb :23.3°C )
Humedad 58 %, Humidex 37.2°C Barómetro corregido a msl1016.9 mb
cambio de presión-0.2 mb (última hora) Tendencia (últimas 1 hora)ESTACIONARIO
cambio de presión (últimas 12 horas)+0.5 mb cambio de presión (últimas 6 horas)-1.6 mb
Current Temp. Interna 30.0°C
Current Hum. Interna 52%


Última imagen cámara web


Weather report/warning/Metars

Alicante / El Altet, Spain (LEAL) 38-17N 000-33W 31M
Sep 19, 2018 - 11:00 AM EDT / 2018.09.19 1500 UTC
Wind: from the SE (130 degrees) at 8 MPH (7 KT) (direction variable):0
Visibility: greater than 7 mile(s):0
Sky conditions: mostly clear
Temperature: 82 F (28 C)
Dew Point: 69 F (21 C)
Relative Humidity: 65%
Pressure (altimeter): 30.09 in. Hg (1019 hPa)
ob: LEAL 191500Z 13007KT 090V190 9999 FEW030 28/21 Q1019 NOSIG
cycle: 15
Murcia / San Javier, Spain (LELC) 37-47N 000-48W 3M
Sep 19, 2018 - 11:00 AM EDT / 2018.09.19 1500 UTC
Wind: from the E (090 degrees) at 9 MPH (8 KT) (direction variable):0
Visibility: greater than 7 mile(s):0
Sky conditions: mostly clear
Weather: Towering cumulus clouds observed
Temperature: 82 F (28 C)
Dew Point: 71 F (22 C)
Relative Humidity: 69%
Pressure (altimeter): 30.09 in. Hg (1019 hPa)
ob: LELC 191500Z 09008KT 050V130 9999 FEW030TCU 28/22 Q1019 NOSIG
cycle: 15
Murcia / Alcantarilla, Spain (LERI) 37-57N 001-14W 75M
Sep 19, 2018 - 11:00 AM EDT / 2018.09.19 1500 UTC
Wind: from the SE (130 degrees) at 10 MPH (9 KT):0
Visibility: greater than 7 mile(s):0
Sky conditions: mostly clear
Weather: Towering cumulus clouds observed
Temperature: 86 F (30 C)
Dew Point: 68 F (20 C)
Relative Humidity: 55%
Pressure (altimeter): 30.09 in. Hg (1019 hPa)
ob: LERI 191500Z 13009KT 9999 FEW050TCU 30/20 Q1019 NOSIG
cycle: 15
Gerona / Costa Brava, Spain (LEGE) 41-54N 002-46E 129M
Sep 19, 2018 - 11:00 AM EDT / 2018.09.19 1500 UTC
Wind: from the S (170 degrees) at 8 MPH (7 KT) (direction variable):0
Visibility: greater than 7 mile(s):0
Sky conditions: partly cloudy
Temperature: 80 F (27 C)
Dew Point: 68 F (20 C)
Relative Humidity: 65%
Pressure (altimeter): 30.09 in. Hg (1019 hPa)
ob: LEGE 191500Z 17007KT 140V210 9999 SCT050 27/20 Q1019
cycle: 15
Madri-Colmenar, Spain (LECV) 40-39N 003-44W
Sep 19, 2018 - 11:00 AM EDT / 2018.09.19 1500 UTC
Wind: from the NNW (340 degrees) at 5 MPH (4 KT):0
Visibility: greater than 7 mile(s):0
Sky conditions: partly cloudy
Weather: Cumulonimbus clouds observed
Temperature: 77 F (25 C)
Dew Point: 55 F (13 C)
Relative Humidity: 47%
Pressure (altimeter): 30.21 in. Hg (1023 hPa)
ob: LECV 191500Z 34004KT 9999 FEW050CB SCT060 25/13 Q1023
cycle: 15
Asturias / Aviles, Spain (LEAS) 43-33N 006-02W 130M
Sep 19, 2018 - 11:00 AM EDT / 2018.09.19 1500 UTC
Wind: Variable at 2 MPH (2 KT):0
Visibility: greater than 7 mile(s):0
Temperature: 71 F (22 C)
Dew Point: 57 F (14 C)
Relative Humidity: 60%
Pressure (altimeter): 30.18 in. Hg (1022 hPa)
ob: LEAS 191500Z VRB02KT CAVOK 22/14 Q1022 NOSIG
cycle: 15
Almeria / Aeropuerto, Spain (LEAM) 36-51N 002-23W 21M
Sep 19, 2018 - 11:00 AM EDT / 2018.09.19 1500 UTC
Wind: from the SSW (210 degrees) at 3 MPH (3 KT):0
Visibility: greater than 7 mile(s):0
Sky conditions: mostly cloudy
Temperature: 78 F (26 C)
Dew Point: 73 F (23 C)
Relative Humidity: 83%
Pressure (altimeter): 30.09 in. Hg (1019 hPa)
ob: LEAM 191500Z 21003KT 9999 FEW010 SCT030 BKN040 26/23 Q1019
cycle: 15
Pamplona / Noain, Spain (LEPP) 42-46N 001-38W 453M
Sep 19, 2018 - 11:00 AM EDT / 2018.09.19 1500 UTC
Wind: from the ENE (070 degrees) at 2 MPH (2 KT):0
Visibility: greater than 7 mile(s):0
Sky conditions: mostly clear
Temperature: 86 F (30 C)
Dew Point: 53 F (12 C)
Relative Humidity: 33%
Pressure (altimeter): 30.12 in. Hg (1020 hPa)
ob: LEPP 191500Z 07002KT 9999 FEW028 30/12 Q1020
cycle: 15
Badajoz / Talavera La Real, Spain (LEBZ) 38-53N 006-49W 192M
Sep 19, 2018 - 11:00 AM EDT / 2018.09.19 1500 UTC
Wind: Variable at 3 MPH (3 KT):0
Visibility: greater than 7 mile(s):0
Temperature: 91 F (33 C)
Dew Point: 51 F (11 C)
Relative Humidity: 26%
Pressure (altimeter): 30.06 in. Hg (1018 hPa)
ob: LEBZ 191500Z VRB03KT CAVOK 33/11 Q1018
cycle: 15
Albacete / Los Llanos, Spain (LEAB) 38-57N 001-51W 704M
Sep 19, 2018 - 11:00 AM EDT / 2018.09.19 1500 UTC
Wind: from the ENE (060 degrees) at 6 MPH (5 KT) (direction variable):0
Visibility: greater than 7 mile(s):0
Sky conditions: mostly clear
Temperature: 80 F (27 C)
Dew Point: 60 F (16 C)
Relative Humidity: 50%
Pressure (altimeter): 30.18 in. Hg (1022 hPa)
ob: LEAB 191500Z 06005KT 350V150 9999 FEW045 27/16 Q1022 NOSIG
cycle: 15



La informacion se graba a intervalos de 2 minutos, pero hay info grabada cada minuto. Optimizado para 800*600 y Color verdadero. Use el boton de

Use the RECARGA en su navegador para recojer la ulima info.

Clicar aquí para regarga diaria de medias/extremas del mes














Created by "Weather Display" software version 10.37S at this start time/date 11:18:08 04/09/2018

La estación de MeteoMurcia.com, publica sus datos en los siguientes proyectos:

Meteoclimatic www.awekas.at

W3Counter
Web Analytics